Time;durP1;ratioP1;P1;durP2;ratioP2;P2;SDS_P1;SDS_P2;PMS_P1;PMS_P2;Temp;Humidity;BMP_temperature;BMP_pressure;BME280_temperature;BME280_humidity;BME280_pressure;Samples;Min_cycle;Max_cycle;Signal;HPM_P1;HPM_P2
2023/06/28 00:01:36;;;;;;;10.67;7.20;;;;;;;22.40;78.63;94639.09;5072349;28;20499;-78
2023/06/28 00:04:03;;;;;;;11.80;7.00;;;;;;;22.45;78.46;94641.94;5072411;28;20534;-77
2023/06/28 00:06:31;;;;;;;7.83;7.13;;;;;;;22.44;78.04;94636.81;5072404;28;20446;-77
2023/06/28 00:08:58;;;;;;;9.03;7.37;;;;;;;22.43;78.05;94637.84;5021083;28;21019;-77
2023/06/28 00:11:25;;;;;;;8.40;6.97;;;;;;;22.43;78.36;94641.34;5072446;28;20444;-77
2023/06/28 00:13:53;;;;;;;8.17;7.37;;;;;;;22.37;77.28;94642.19;5072448;28;20479;-77
2023/06/28 00:16:19;;;;;;;13.50;6.73;;;;;;;22.27;77.30;94638.31;5072347;28;20448;-77
2023/06/28 00:18:48;;;;;;;13.97;7.20;;;;;;;22.23;77.48;94628.00;5072372;28;20471;-77
2023/06/28 00:21:14;;;;;;;9.30;6.43;;;;;;;22.20;78.58;94631.09;5053276;28;20431;-77
2023/06/28 00:23:42;;;;;;;7.87;7.07;;;;;;;22.14;78.85;94626.59;5072008;28;20449;-78
2023/06/28 00:26:09;;;;;;;8.40;7.50;;;;;;;22.11;78.73;94626.19;5072170;28;20452;-77
2023/06/28 00:28:36;;;;;;;11.60;8.33;;;;;;;22.02;78.61;94630.91;5072273;28;20452;-78
2023/06/28 00:31:05;;;;;;;9.60;6.80;;;;;;;21.98;79.97;94629.66;5072325;28;20807;-76
2023/06/28 00:33:31;;;;;;;7.17;6.47;;;;;;;21.96;79.49;94634.38;5072494;28;20445;-77
2023/06/28 00:36:02;;;;;;;7.47;6.77;;;;;;;21.95;79.70;94632.72;5071883;28;20450;-77
2023/06/28 00:38:29;;;;;;;8.13;7.03;;;;;;;21.91;79.61;94635.00;5072639;28;20471;-77
2023/06/28 00:40:56;;;;;;;9.63;7.83;;;;;;;21.92;80.16;94635.81;5073385;28;20447;-78
2023/06/28 00:43:23;;;;;;;7.87;6.80;;;;;;;21.93;79.19;94642.78;5075499;28;20837;-77
2023/06/28 00:45:49;;;;;;;8.73;7.13;;;;;;;21.95;79.62;94635.38;5075482;28;20445;-77
2023/06/28 00:48:16;;;;;;;8.53;7.57;;;;;;;21.95;79.24;94630.06;5075917;28;20447;-77
2023/06/28 00:50:44;;;;;;;8.53;6.30;;;;;;;21.90;78.39;94632.53;5075522;28;20504;-77
2023/06/28 00:53:15;;;;;;;10.23;7.90;;;;;;;21.80;79.11;94638.28;5075604;28;20509;-77
2023/06/28 00:55:42;;;;;;;7.07;6.37;;;;;;;21.79;80.54;94641.16;5023583;28;20449;-77
2023/06/28 00:58:09;;;;;;;8.83;7.23;;;;;;;21.80;81.44;94640.97;5075400;28;20452;-76
2023/06/28 01:00:36;;;;;;;8.90;8.00;;;;;;;21.84;81.73;94638.69;5075378;28;20462;-77
2023/06/28 01:03:04;;;;;;;10.33;7.03;;;;;;;21.89;81.44;94638.91;5075165;28;20487;-77
2023/06/28 01:05:30;;;;;;;7.23;6.50;;;;;;;21.89;80.78;94641.56;5023222;28;21163;-77
2023/06/28 01:08:01;;;;;;;7.60;6.90;;;;;;;21.90;80.38;94638.69;5075038;28;20449;-77
2023/06/28 01:10:32;;;;;;;8.07;7.27;;;;;;;21.94;80.40;94639.09;5075185;28;20454;-77
2023/06/28 01:12:59;;;;;;;7.17;6.50;;;;;;;21.98;80.02;94640.34;5075074;28;20458;-77
2023/06/28 01:15:26;;;;;;;9.67;7.00;;;;;;;21.98;79.89;94640.34;5075315;28;20450;-77
2023/06/28 01:17:53;;;;;;;8.73;7.10;;;;;;;21.97;80.10;94633.34;5074926;28;21041;-77
2023/06/28 01:20:20;;;;;;;9.50;7.37;;;;;;;21.93;80.11;94637.44;5075102;28;20456;-77
2023/06/28 01:22:56;;;;;;;10.77;8.50;;;;;;;21.88;80.12;94643.41;5074632;28;20492;-77
2023/06/28 01:25:23;;;;;;;9.80;7.60;;;;;;;21.88;80.45;94632.72;5074941;28;20447;-77
2023/06/28 01:27:51;;;;;;;9.80;7.00;;;;;;;21.90;80.64;94641.34;5023084;28;20449;-78
2023/06/28 01:30:23;;;;;;;7.40;6.80;;;;;;;21.93;80.10;94637.44;5074764;28;20450;-77
2023/06/28 01:32:50;;;;;;;9.73;7.40;;;;;;;21.91;80.26;94634.16;5074674;28;20457;-76
2023/06/28 01:35:17;;;;;;;7.37;6.67;;;;;;;21.87;79.83;94638.28;5074884;28;20443;-77
2023/06/28 01:37:47;;;;;;;7.63;6.93;;;;;;;21.86;80.58;94641.97;5074437;28;20450;-77
2023/06/28 01:40:17;;;;;;;8.27;7.47;;;;;;;21.82;81.36;94640.75;5074599;28;20452;-77
2023/06/28 01:42:44;;;;;;;7.43;6.73;;;;;;;21.78;81.31;94640.34;5074458;28;20491;-77
2023/06/28 01:45:11;;;;;;;7.70;7.00;;;;;;;21.75;81.57;94642.59;5074417;28;20854;-77
2023/06/28 01:47:41;;;;;;;9.10;7.30;;;;;;;21.74;81.67;94636.44;5074498;28;20798;-77
2023/06/28 01:50:09;;;;;;;8.30;7.50;;;;;;;21.74;80.65;94644.47;4992112;28;21067;-77
2023/06/28 01:52:36;;;;;;;10.50;7.50;;;;;;;21.72;80.91;94638.50;5073736;28;20485;-77
2023/06/28 01:55:04;;;;;;;8.10;7.30;;;;;;;21.68;81.21;94645.25;5074158;28;20827;-78
2023/06/28 01:57:32;;;;;;;8.03;7.30;;;;;;;21.62;80.64;94649.56;5074187;28;20456;-77
2023/06/28 01:59:59;;;;;;;11.13;6.87;;;;;;;21.58;81.04;94652.84;5022557;28;20935;-77
2023/06/28 02:02:26;;;;;;;8.43;7.03;;;;;;;21.55;81.08;94653.25;5074184;28;20486;-77
2023/06/28 02:04:53;;;;;;;7.47;6.60;;;;;;;21.54;81.86;94651.63;5074021;28;20454;-77
2023/06/28 02:07:19;;;;;;;8.10;6.63;;;;;;;21.52;81.64;94657.16;5022268;28;20440;-77
2023/06/28 02:09:46;;;;;;;8.80;7.33;;;;;;;21.50;81.67;94658.38;5073875;28;20476;-77
2023/06/28 02:12:13;;;;;;;8.83;8.03;;;;;;;21.55;81.73;94656.75;5022456;28;20907;-77
2023/06/28 02:14:42;;;;;;;7.93;6.73;;;;;;;21.52;81.56;94651.00;5074040;28;20443;-77
2023/06/28 02:17:13;;;;;;;14.20;6.97;;;;;;;21.48;79.04;94650.59;5073502;28;20532;-77
2023/06/28 02:19:40;;;;;;;10.73;7.93;;;;;;;21.40;79.65;94656.13;5073913;28;20527;-77
2023/06/28 02:22:07;;;;;;;9.10;7.27;;;;;;;21.40;79.94;94666.81;5073636;28;20478;-77
2023/06/28 02:24:34;;;;;;;8.83;7.80;;;;;;;21.36;81.28;94657.53;5022401;28;20451;-77
2023/06/28 02:27:03;;;;;;;11.63;7.60;;;;;;;21.30;80.48;94664.50;5073812;28;20487;-77
2023/06/28 02:29:30;;;;;;;9.37;8.33;;;;;;;21.25;80.77;94661.59;5073697;28;20448;-77
2023/06/28 02:31:58;;;;;;;8.30;7.50;;;;;;;21.21;81.26;94660.34;5073555;28;20447;-77
2023/06/28 02:34:25;;;;;;;11.73;7.37;;;;;;;21.19;82.13;94662.38;5073860;28;20455;-77
2023/06/28 02:36:54;;;;;;;9.17;8.00;;;;;;;21.26;82.65;94673.09;5073240;28;20468;-77
2023/06/28 02:39:21;;;;;;;10.20;7.83;;;;;;;21.31;81.71;94673.31;5073599;28;20506;-77
2023/06/28 02:41:48;;;;;;;8.53;7.73;;;;;;;21.32;81.72;94662.44;5073454;28;20453;-77
2023/06/28 02:44:15;;;;;;;9.50;8.50;;;;;;;21.29;81.52;94676.19;5073240;28;20493;-77
2023/06/28 02:46:42;;;;;;;9.17;8.20;;;;;;;21.27;81.85;94675.56;5073633;28;20455;-77
2023/06/28 02:49:10;;;;;;;9.77;7.80;;;;;;;21.31;81.79;94663.47;5073156;28;20445;-77
2023/06/28 02:51:39;;;;;;;9.03;8.13;;;;;;;21.22;81.27;94663.84;5073259;28;20456;-77
2023/06/28 02:54:05;;;;;;;9.53;8.63;;;;;;;21.17;82.04;94660.94;5073209;28;20443;-77
2023/06/28 02:56:32;;;;;;;12.40;8.20;;;;;;;21.12;80.82;94666.06;5073096;28;20454;-77
2023/06/28 02:58:59;;;;;;;9.53;8.63;;;;;;;20.98;80.85;94673.19;5073053;28;20447;-77
2023/06/28 03:01:26;;;;;;;9.77;8.60;;;;;;;20.97;82.15;94671.53;5021277;28;20466;-76
2023/06/28 03:03:55;;;;;;;9.67;8.77;;;;;;;20.94;82.91;94672.75;5072708;28;20582;-77
2023/06/28 03:06:23;;;;;;;9.20;8.37;;;;;;;20.93;83.64;94675.63;5022233;28;20530;-77
2023/06/28 03:08:51;;;;;;;10.00;8.87;;;;;;;20.97;85.03;94669.69;5073109;28;20452;-77
2023/06/28 03:11:17;;;;;;;9.47;8.37;;;;;;;20.98;84.11;94676.66;5072962;28;20500;-77
2023/06/28 03:13:44;;;;;;;15.53;8.47;;;;;;;21.03;83.46;94662.72;5072971;28;20447;-77
2023/06/28 03:16:11;;;;;;;8.60;7.80;;;;;;;21.06;83.20;94669.50;5073107;28;20454;-77
2023/06/28 03:18:40;;;;;;;9.40;8.50;;;;;;;21.07;83.79;94671.16;5072883;28;20481;-77
2023/06/28 03:21:07;;;;;;;9.30;7.77;;;;;;;21.18;83.16;94678.59;5021157;28;20453;-77
2023/06/28 03:23:35;;;;;;;10.70;9.00;;;;;;;21.24;82.65;94672.50;5021012;28;20491;-77
2023/06/28 03:26:02;;;;;;;9.87;8.87;;;;;;;21.28;82.67;94674.56;5072483;28;20441;-77
2023/06/28 03:28:29;;;;;;;15.13;7.77;;;;;;;21.31;82.51;94676.81;5072618;28;20445;-77
2023/06/28 03:30:56;;;;;;;10.03;9.03;;;;;;;21.38;82.26;94679.50;5072437;28;20460;-77
2023/06/28 03:33:23;;;;;;;11.40;10.30;;;;;;;21.48;82.26;94679.13;5072592;28;20456;-80
2023/06/28 03:35:50;;;;;;;11.07;8.47;;;;;;;21.50;80.65;94680.56;5072738;28;20784;-77
2023/06/28 03:38:16;;;;;;;9.57;8.57;;;;;;;21.65;80.45;94680.38;5072673;28;20446;-77
2023/06/28 03:40:45;;;;;;;10.13;9.03;;;;;;;21.79;79.50;94662.53;5072664;28;20440;-77
2023/06/28 03:43:11;;;;;;;9.40;8.50;;;;;;;21.94;78.85;94673.81;5072424;28;20494;-76
2023/06/28 03:45:38;;;;;;;9.20;8.40;;;;;;;22.11;78.85;94668.94;5074833;28;20473;-77
2023/06/28 03:48:05;;;;;;;9.53;8.53;;;;;;;22.25;78.54;94670.56;5053332;28;20944;-77
2023/06/28 03:50:32;;;;;;;14.17;10.03;;;;;;;22.38;77.48;94669.75;5088189;28;20798;-78
2023/06/28 03:53:01;;;;;;;11.87;9.80;;;;;;;22.43;76.66;94660.06;5088778;28;20544;-77
2023/06/28 03:55:29;;;;;;;10.57;9.50;;;;;;;22.53;76.63;94670.31;5074424;28;20450;-77
2023/06/28 03:57:57;;;;;;;11.53;10.40;;;;;;;22.59;76.75;94663.34;5093132;28;20837;-77
2023/06/28 04:00:24;;;;;;;10.87;9.90;;;;;;;22.62;75.31;94663.72;5092427;28;20469;-78
2023/06/28 04:02:51;;;;;;;14.67;10.53;;;;;;;22.59;75.33;94666.84;5040038;28;20491;-77
2023/06/28 04:05:17;;;;;;;11.87;10.57;;;;;;;22.55;75.28;94668.25;5092409;28;20916;-77
2023/06/28 04:07:45;;;;;;;14.63;10.10;;;;;;;22.53;74.42;94664.97;5092653;28;20801;-77
2023/06/28 04:10:12;;;;;;;14.73;10.40;;;;;;;22.47;76.13;94671.16;5092878;28;20476;-78
2023/06/28 04:12:39;;;;;;;9.30;8.50;;;;;;;22.66;78.50;94667.63;5092583;28;20448;-78
2023/06/28 04:15:10;;;;;;;10.40;9.40;;;;;;;23.04;76.89;94666.91;5093142;28;20807;-79
2023/06/28 04:17:40;;;;;;;10.47;9.33;;;;;;;23.41;75.17;94668.78;5096527;28;20478;-79
2023/06/28 04:20:08;;;;;;;9.47;8.47;;;;;;;23.73;73.38;94671.53;5096746;28;20447;-79
2023/06/28 04:22:35;;;;;;;10.10;8.83;;;;;;;24.14;73.99;94667.50;5096291;28;20438;-77
2023/06/28 04:25:11;;;;;;;13.97;9.70;;;;;;;24.45;70.43;94680.88;5096860;28;20478;-80
2023/06/28 04:27:51;;;;;;;15.73;9.20;;;;;;;24.70;70.04;94678.16;5097186;28;20447;-78
2023/06/28 04:30:25;;;;;;;11.93;10.07;;;;;;;25.00;68.19;94676.41;5027944;28;20448;-78
2023/06/28 04:32:57;;;;;;;11.80;8.73;;;;;;;25.30;67.36;94686.38;5060695;28;20474;-78
2023/06/28 04:35:26;;;;;;;11.30;10.03;;;;;;;25.56;65.83;94683.34;5045158;28;20942;-78
2023/06/28 04:37:59;;;;;;;10.63;9.63;;;;;;;25.78;65.34;94682.88;5096835;28;20440;-78
2023/06/28 04:40:25;;;;;;;13.87;11.87;;;;;;;25.96;63.44;94680.13;5096412;28;20452;-79
2023/06/28 04:42:58;;;;;;;12.57;11.47;;;;;;;25.98;61.95;94678.00;5096412;28;20488;-77
2023/06/28 04:45:36;;;;;;;10.20;9.30;;;;;;;25.89;62.25;94688.28;5096816;28;20459;-77
2023/06/28 04:48:05;;;;;;;12.00;10.90;;;;;;;25.82;62.67;94682.19;5059863;28;20444;-78
2023/06/28 04:50:32;;;;;;;13.17;10.63;;;;;;;25.74;63.27;94679.84;5095351;28;20944;-78
2023/06/28 04:53:14;;;;;;;12.47;10.73;;;;;;;25.71;63.53;94684.81;5095206;28;20440;-79
2023/06/28 04:55:55;;;;;;;;;;;;;;;;;;;;;
2023/06/28 04:58:25;;;;;;;13.97;12.67;;;;;;;25.55;64.84;94680.91;5025803;28;20458;-78
2023/06/28 05:00:56;;;;;;;15.83;13.90;;;;;;;25.36;65.54;94687.34;5094452;28;20513;-78
2023/06/28 05:03:28;;;;;;;18.60;15.80;;;;;;;24.91;68.19;94685.78;5094576;28;20934;-79
2023/06/28 05:05:59;;;;;;;20.00;16.30;;;;;;;24.76;69.24;94692.53;5094939;28;20454;-78
2023/06/28 05:08:32;;;;;;;19.00;16.10;;;;;;;24.48;69.95;94699.22;5094436;28;20459;-79
2023/06/28 05:11:03;;;;;;;19.00;15.80;;;;;;;24.35;71.22;94696.66;5060782;28;20464;-78
2023/06/28 05:13:31;;;;;;;18.07;16.33;;;;;;;24.05;72.53;94694.59;5059331;28;20806;-80
2023/06/28 05:16:01;;;;;;;19.37;17.40;;;;;;;23.92;72.89;94683.97;5094738;28;20445;-80
2023/06/28 05:18:30;;;;;;;19.97;17.97;;;;;;;24.08;72.69;94690.66;5094208;28;20473;-79
2023/06/28 05:20:57;;;;;;;18.30;16.50;;;;;;;24.36;72.61;94688.38;5083788;28;20462;-78
2023/06/28 05:23:29;;;;;;;20.70;15.40;;;;;;;24.63;71.19;94686.28;5093142;28;20524;-78
2023/06/28 05:25:59;;;;;;;17.60;15.80;;;;;;;24.77;71.17;94689.63;5094214;28;20459;-78
2023/06/28 05:28:30;;;;;;;21.60;14.63;;;;;;;24.88;70.14;94685.41;5041493;28;20444;-79
2023/06/28 05:31:02;;;;;;;17.00;15.20;;;;;;;25.16;69.58;94693.78;5086882;28;20460;-78
2023/06/28 05:33:28;;;;;;;16.60;14.90;;;;;;;25.29;69.44;94699.00;5093528;28;20456;-78
2023/06/28 05:35:58;;;;;;;17.13;15.40;;;;;;;25.14;67.84;94687.81;5093903;28;20522;-79
2023/06/28 05:38:30;;;;;;;20.70;17.40;;;;;;;25.03;68.28;94691.25;5043265;28;20444;-78
2023/06/28 05:41:24;;;;;;;17.93;16.03;;;;;;;24.78;69.52;94687.78;5045255;28;20446;-78
2023/06/28 05:43:54;;;;;;;18.70;16.90;;;;;;;24.77;70.74;94689.63;5094747;28;20491;-79
2023/06/28 05:46:24;;;;;;;19.83;16.30;;;;;;;24.84;69.67;94684.19;5055276;28;20444;-78
2023/06/28 05:48:54;;;;;;;20.77;17.87;;;;;;;24.74;71.00;94690.09;5049962;28;20452;-79
2023/06/28 05:51:27;;;;;;;20.97;17.67;;;;;;;24.85;70.76;94691.19;5073475;28;20448;-79
2023/06/28 05:53:55;;;;;;;21.00;16.57;;;;;;;24.76;70.47;94692.53;5074072;28;20444;-78
2023/06/28 05:56:22;;;;;;;20.40;17.67;;;;;;;24.86;70.89;94692.84;5073583;28;20454;-78
2023/06/28 05:58:56;;;;;;;17.50;14.93;;;;;;;24.98;70.09;94693.75;5073227;28;20826;-79
2023/06/28 06:01:24;;;;;;;17.10;15.40;;;;;;;24.99;69.49;94688.19;5073270;28;20963;-79
2023/06/28 06:03:56;;;;;;;18.50;16.40;;;;;;;25.10;68.72;94691.16;5074411;28;20484;-78
2023/06/28 06:06:26;;;;;;;19.77;16.60;;;;;;;25.15;69.49;94689.44;5074196;28;20456;-78
2023/06/28 06:08:53;;;;;;;19.10;16.83;;;;;;;25.38;68.91;94686.06;5073587;28;20447;-78
2023/06/28 06:11:22;;;;;;;17.10;15.40;;;;;;;25.33;68.45;94689.44;5074001;28;20483;-78
2023/06/28 06:13:50;;;;;;;18.13;15.90;;;;;;;25.41;67.84;94687.47;5073968;28;20441;-78
2023/06/28 06:16:22;;;;;;;19.50;17.70;;;;;;;25.31;68.50;94691.53;5073755;28;20456;-79
2023/06/28 06:18:52;;;;;;;16.33;14.73;;;;;;;25.43;68.49;94688.88;5007097;28;20838;-78
2023/06/28 06:21:19;;;;;;;18.40;16.60;;;;;;;25.51;67.28;94691.28;5072011;28;20453;-79
2023/06/28 06:23:51;;;;;;;21.50;17.90;;;;;;;25.70;66.97;94697.44;5073626;28;20488;-78
2023/06/28 06:26:20;;;;;;;31.33;18.67;;;;;;;25.85;66.44;94683.59;5073641;28;20528;-78
2023/06/28 06:28:49;;;;;;;20.23;18.10;;;;;;;25.99;66.19;94687.72;5073640;28;20444;-78
2023/06/28 06:31:22;;;;;;;25.37;19.13;;;;;;;25.98;65.28;94690.63;5073622;28;20449;-78
2023/06/28 06:33:52;;;;;;;22.93;19.70;;;;;;;26.01;65.13;94690.16;5073490;28;20452;-78
2023/06/28 06:36:21;;;;;;;20.97;18.67;;;;;;;26.13;64.50;94693.72;5073177;28;20798;-78
2023/06/28 06:38:55;;;;;;;19.10;17.10;;;;;;;26.15;65.00;94695.13;5073327;28;20512;-79
2023/06/28 06:41:28;;;;;;;21.80;18.77;;;;;;;26.20;64.27;94684.50;5024590;28;20448;-79
2023/06/28 06:43:57;;;;;;;20.37;18.30;;;;;;;26.45;63.57;94694.25;5073242;28;20512;-78
2023/06/28 06:46:29;;;;;;;19.90;17.90;;;;;;;26.32;63.88;94687.22;5073340;28;20795;-78
2023/06/28 06:49:02;;;;;;;18.87;16.93;;;;;;;26.29;63.22;94692.22;5073135;28;20897;-78
2023/06/28 06:51:31;;;;;;;20.10;18.07;;;;;;;26.12;63.68;94697.47;5054674;28;20772;-78
2023/06/28 06:54:03;;;;;;;18.80;16.90;;;;;;;26.18;64.84;94685.78;5022895;28;20444;-78
2023/06/28 06:56:31;;;;;;;19.70;17.60;;;;;;;26.19;64.14;94684.72;5037685;28;21309;-78
2023/06/28 06:59:08;;;;;;;20.00;17.53;;;;;;;26.24;63.31;94679.47;5073059;28;20440;-78
2023/06/28 07:01:35;;;;;;;18.17;16.27;;;;;;;26.44;63.82;94685.38;5073372;28;20461;-78
2023/06/28 07:04:07;;;;;;;19.00;17.00;;;;;;;26.39;64.00;94684.44;5073044;28;20579;-78
2023/06/28 07:06:36;;;;;;;18.80;16.77;;;;;;;26.72;64.08;94675.78;5072672;28;20835;-79
2023/06/28 07:09:06;;;;;;;21.63;18.47;;;;;;;26.63;62.30;94671.81;5073206;28;20459;-79
2023/06/28 07:11:33;;;;;;;24.70;19.77;;;;;;;26.76;62.69;94669.69;5072921;28;20916;-79
2023/06/28 07:14:00;;;;;;;17.73;16.00;;;;;;;26.90;62.62;94672.16;5072906;28;20839;-78
2023/06/28 07:16:32;;;;;;;17.67;15.77;;;;;;;26.86;60.99;94677.97;5072816;28;20441;-78
2023/06/28 07:19:04;;;;;;;19.70;17.70;;;;;;;26.98;61.30;94679.84;5073505;28;20468;-79
2023/06/28 07:21:41;;;;;;;20.37;18.33;;;;;;;26.56;61.54;94677.28;5073056;28;20456;-78
2023/06/28 07:24:10;;;;;;;20.13;15.83;;;;;;;26.45;63.13;94675.44;5072687;28;20480;-79
2023/06/28 07:26:37;;;;;;;17.83;16.03;;;;;;;26.49;62.55;94672.03;5072687;28;20935;-78
2023/06/28 07:29:04;;;;;;;18.20;16.20;;;;;;;26.62;61.92;94675.56;5073115;28;20449;-79
2023/06/28 07:31:31;;;;;;;20.57;18.47;;;;;;;26.20;62.17;94667.53;5072972;28;20452;-79
2023/06/28 07:33:58;;;;;;;22.97;17.60;;;;;;;25.92;64.13;94678.94;5072758;28;20449;-78
2023/06/28 07:36:26;;;;;;;18.13;16.27;;;;;;;26.05;64.48;94672.56;5072649;28;20445;-78
2023/06/28 07:38:53;;;;;;;19.33;15.60;;;;;;;26.13;63.56;94673.03;5037480;28;20440;-80
2023/06/28 07:41:19;;;;;;;20.20;16.20;;;;;;;26.21;62.89;94685.31;5072491;28;20924;-78
2023/06/28 07:43:46;;;;;;;18.60;16.70;;;;;;;25.97;63.08;94680.94;5072387;28;20452;-78
2023/06/28 07:46:13;;;;;;;19.90;16.57;;;;;;;25.62;65.13;94685.13;5072635;28;20796;-79
2023/06/28 07:48:40;;;;;;;19.43;17.10;;;;;;;25.13;66.07;94688.03;5072496;28;20440;-77
2023/06/28 07:51:06;;;;;;;18.50;16.50;;;;;;;25.00;67.42;94687.16;5074131;28;20452;-78
2023/06/28 07:53:35;;;;;;;19.20;17.17;;;;;;;25.07;66.42;94684.38;5076462;28;20517;-78
2023/06/28 07:56:02;;;;;;;29.50;18.20;;;;;;;25.18;67.18;94683.66;5076928;28;20444;-78
2023/06/28 07:58:29;;;;;;;18.87;17.07;;;;;;;25.47;66.80;94683.91;5076454;28;20449;-77
2023/06/28 08:00:56;;;;;;;18.60;15.03;;;;;;;25.72;65.00;94687.28;5076502;28;20459;-79
2023/06/28 08:03:23;;;;;;;15.90;14.33;;;;;;;26.09;64.53;94679.91;5077178;28;21204;-83
2023/06/28 08:05:49;;;;;;;17.20;15.40;;;;;;;26.23;63.33;94689.41;5077873;28;20475;-83
2023/06/28 08:08:16;;;;;;;18.70;16.80;;;;;;;25.94;62.26;94683.03;5076982;28;20445;-82
2023/06/28 08:10:44;;;;;;;18.00;16.20;;;;;;;25.62;63.85;94692.38;5042138;28;20448;-83
2023/06/28 08:13:11;;;;;;;19.43;15.53;;;;;;;25.56;64.89;94688.72;5076816;28;20941;-83
2023/06/28 08:19:26;;;;;;;19.37;17.37;;;;;;;25.91;67.02;94691.56;5058358;28;20436;-83
2023/06/28 08:21:53;;;;;;;20.60;15.50;;;;;;;26.07;62.95;94681.22;5056756;28;20477;-83
2023/06/28 08:24:20;;;;;;;19.33;14.00;;;;;;;26.41;63.59;94683.16;5038641;28;20486;-81
2023/06/28 08:26:48;;;;;;;15.57;13.33;;;;;;;26.94;62.82;94679.50;5057120;28;20814;-88
2023/06/28 08:29:16;;;;;;;21.97;14.97;;;;;;;27.21;62.15;94679.84;5056653;28;20430;-82
2023/06/28 08:31:43;;;;;;;18.77;13.77;;;;;;;27.15;59.17;94678.91;5056168;28;20456;-80
2023/06/28 08:34:10;;;;;;;13.93;12.63;;;;;;;27.06;60.79;94672.25;5055866;28;20446;-79
2023/06/28 08:36:36;;;;;;;19.87;13.30;;;;;;;27.04;58.63;94674.38;5055832;28;20437;-79
2023/06/28 08:39:03;;;;;;;16.67;12.90;;;;;;;27.13;59.11;94666.72;5055652;28;20449;-79
2023/06/28 08:41:31;;;;;;;14.90;12.60;;;;;;;27.04;59.51;94666.28;5055697;28;20454;-80
2023/06/28 08:44:02;;;;;;;14.20;12.70;;;;;;;27.32;60.48;94664.69;5055726;28;20445;-80
2023/06/28 08:46:29;;;;;;;14.23;12.73;;;;;;;27.62;56.46;94653.72;5055543;28;20925;-80
2023/06/28 08:48:56;;;;;;;17.10;11.80;;;;;;;27.52;57.56;94654.31;5055718;28;20448;-79
2023/06/28 08:51:24;;;;;;;15.77;13.87;;;;;;;27.10;56.26;94659.94;5055815;28;20449;-79
2023/06/28 08:53:52;;;;;;;14.90;13.47;;;;;;;26.82;58.77;94655.28;5055387;28;20445;-79
2023/06/28 08:56:19;;;;;;;15.00;13.40;;;;;;;26.71;64.27;94655.28;5055701;28;20531;-80
2023/06/28 08:58:48;;;;;;;18.10;13.73;;;;;;;27.00;61.95;94651.66;5055573;28;21167;-79
2023/06/28 09:01:16;;;;;;;16.50;12.60;;;;;;;27.27;57.89;94651.13;5055043;28;20465;-80
2023/06/28 09:03:44;;;;;;;14.73;12.87;;;;;;;27.31;57.30;94647.69;5036155;28;20468;-79
2023/06/28 09:06:11;;;;;;;20.93;15.50;;;;;;;27.51;58.83;94652.69;5054376;28;20486;-79
2023/06/28 09:08:39;;;;;;;15.60;13.00;;;;;;;27.69;57.09;94643.59;5053411;28;20445;-79
2023/06/28 09:11:05;;;;;;;13.27;11.87;;;;;;;27.83;56.14;94646.81;5054398;28;20444;-79
2023/06/28 09:13:33;;;;;;;14.80;13.03;;;;;;;27.70;55.06;94653.31;5054539;28;20442;-80
2023/06/28 09:15:59;;;;;;;15.87;12.93;;;;;;;27.53;55.96;94650.56;5019155;28;20556;-79
2023/06/28 09:18:27;;;;;;;15.70;13.33;;;;;;;27.48;56.96;94650.47;5054766;28;20464;-79
2023/06/28 09:20:55;;;;;;;16.10;13.40;;;;;;;27.35;55.71;94638.06;5066633;28;20470;-79
2023/06/28 09:23:26;;;;;;;15.03;12.90;;;;;;;27.25;55.67;94647.84;5074267;28;20445;-79
2023/06/28 09:25:53;;;;;;;14.20;12.83;;;;;;;27.04;55.96;94646.59;5073838;28;20485;-80
2023/06/28 09:28:22;;;;;;;15.67;12.60;;;;;;;27.01;57.17;94650.59;5077505;28;20444;-79
2023/06/28 09:30:53;;;;;;;14.23;11.90;;;;;;;26.79;56.63;94649.53;5081226;28;20448;-79
2023/06/28 09:33:21;;;;;;;16.43;13.03;;;;;;;26.81;57.72;94636.66;5073989;28;20527;-79
2023/06/28 09:36:02;;;;;;;22.80;12.97;;;;;;;26.87;57.76;94635.72;5074289;28;20988;-79
2023/06/28 09:38:33;;;;;;;14.93;13.00;;;;;;;26.94;58.62;94633.72;5074178;28;20441;-80
2023/06/28 09:41:03;;;;;;;15.67;12.00;;;;;;;27.07;57.91;94629.97;5073970;28;20462;-80
2023/06/28 09:43:32;;;;;;;13.47;12.10;;;;;;;27.11;57.79;94639.22;5073647;28;20459;-79
2023/06/28 09:46:15;;;;;;;16.13;12.50;;;;;;;27.36;57.10;94623.53;5073528;28;21066;-80
2023/06/28 09:48:46;;;;;;;15.47;12.67;;;;;;;27.43;54.02;94626.09;5074129;28;20444;-80
2023/06/28 09:53:58;;;;;;;16.43;11.73;;;;;;;27.03;55.54;94624.25;5011240;28;20470;-81
2023/06/28 09:56:38;;;;;;;14.40;13.00;;;;;;;26.86;58.02;94620.59;5013194;28;20447;-79
2023/06/28 09:59:08;;;;;;;13.60;12.30;;;;;;;26.73;58.80;94618.19;5011601;28;20447;-79
2023/06/28 10:01:39;;;;;;;16.90;11.67;;;;;;;26.71;58.15;94617.59;4963181;28;20463;-79
2023/06/28 10:04:11;;;;;;;13.90;12.50;;;;;;;26.80;57.75;94614.31;4978699;28;20527;-79
2023/06/28 10:06:42;;;;;;;13.73;12.40;;;;;;;26.87;57.71;94614.16;5011359;28;20462;-79
2023/06/28 10:09:17;;;;;;;17.87;12.27;;;;;;;27.00;56.48;94626.59;5011065;28;20479;-79
2023/06/28 10:11:50;;;;;;;14.23;11.80;;;;;;;27.06;57.22;94618.38;5011015;28;20501;-80
2023/06/28 10:14:18;;;;;;;17.23;12.23;;;;;;;27.03;56.44;94618.84;5010673;28;20443;-80
2023/06/28 10:16:46;;;;;;;13.83;11.87;;;;;;;26.83;55.45;94618.41;5011165;28;20435;-79
2023/06/28 10:19:13;;;;;;;14.63;12.10;;;;;;;26.55;55.45;94622.66;5010829;28;20537;-80
2023/06/28 10:21:42;;;;;;;16.70;13.30;;;;;;;26.37;56.84;94611.22;5011046;28;20481;-78
2023/06/28 10:24:11;;;;;;;18.20;12.37;;;;;;;26.28;58.04;94613.38;5010147;28;20448;-79
2023/06/28 10:26:38;;;;;;;15.73;12.50;;;;;;;26.33;59.53;94608.13;5011611;28;20494;-79
2023/06/28 10:29:08;;;;;;;17.70;12.77;;;;;;;26.27;56.96;94610.91;5011617;28;20452;-79
2023/06/28 10:31:43;;;;;;;14.33;12.63;;;;;;;25.85;57.05;94611.00;5049306;28;20441;-79
2023/06/28 10:34:17;;;;;;;17.20;12.60;;;;;;;25.94;58.19;94605.06;5073703;28;20440;-80
2023/06/28 10:36:48;;;;;;;13.47;12.17;;;;;;;26.08;57.01;94608.34;5007128;28;20449;-78
2023/06/28 10:39:16;;;;;;;14.73;13.23;;;;;;;26.15;59.27;94603.69;5073565;28;20445;-79
2023/06/28 10:41:44;;;;;;;13.97;11.97;;;;;;;26.38;57.91;94605.59;5073509;28;20562;-79
2023/06/28 10:44:13;;;;;;;15.33;13.80;;;;;;;26.46;57.87;94599.03;5073562;28;20441;-79
2023/06/28 10:46:40;;;;;;;15.50;12.80;;;;;;;26.69;58.32;94601.69;5072527;28;20484;-79
2023/06/28 10:49:11;;;;;;;12.90;11.53;;;;;;;26.61;56.80;94606.63;5072708;28;20448;-79
2023/06/28 10:51:40;;;;;;;14.13;12.53;;;;;;;26.70;57.26;94591.75;5072343;28;20441;-80
2023/06/28 10:54:13;;;;;;;13.53;12.20;;;;;;;26.99;59.26;94595.34;5072715;28;20540;-79
2023/06/28 10:56:44;;;;;;;16.10;12.50;;;;;;;27.06;57.20;94593.31;5072421;28;20437;-79
2023/06/28 10:59:11;;;;;;;13.10;11.73;;;;;;;26.96;56.31;94588.53;5072335;28;20983;-79
2023/06/28 11:01:41;;;;;;;13.60;12.30;;;;;;;27.00;57.01;94587.00;5072667;28;20828;-79
2023/06/28 11:04:12;;;;;;;12.77;11.40;;;;;;;27.09;57.69;94579.38;5072404;28;20448;-78
2023/06/28 11:06:42;;;;;;;13.57;11.97;;;;;;;27.09;55.84;94576.66;5072308;28;20880;-79
2023/06/28 11:09:15;;;;;;;13.10;11.80;;;;;;;27.21;55.76;94582.03;5072402;28;20445;-79
2023/06/28 11:11:54;;;;;;;13.27;11.97;;;;;;;27.19;55.86;94574.19;5072524;28;20474;-79
2023/06/28 11:14:27;;;;;;;14.10;12.40;;;;;;;27.15;58.22;94586.47;5072320;28;20573;-79
2023/06/28 11:17:00;;;;;;;15.47;13.20;;;;;;;27.14;58.72;94582.16;5072227;28;20443;-79
2023/06/28 11:19:29;;;;;;;17.40;11.80;;;;;;;26.95;55.03;94584.19;5072017;28;20484;-79
2023/06/28 11:22:02;;;;;;;12.97;11.67;;;;;;;26.76;55.97;94586.22;5072188;28;20451;-79
2023/06/28 11:24:46;;;;;;;14.23;12.17;;;;;;;26.61;56.93;94585.09;5036366;28;20429;-78
2023/06/28 11:27:17;;;;;;;13.20;11.90;;;;;;;26.43;57.40;94592.25;5071786;28;20449;-79
2023/06/28 11:30:02;;;;;;;13.70;12.37;;;;;;;26.04;58.78;94584.84;5072527;28;20537;-79
2023/06/28 11:32:34;;;;;;;12.93;11.53;;;;;;;26.12;58.15;94579.13;5037042;28;20452;-79
2023/06/28 11:35:05;;;;;;;12.17;10.73;;;;;;;26.13;58.63;94575.38;5038134;28;20449;-79
2023/06/28 11:37:36;;;;;;;15.03;11.93;;;;;;;26.03;58.07;94580.53;5071986;28;20445;-79
2023/06/28 11:40:10;;;;;;;15.30;12.10;;;;;;;25.98;59.33;94580.38;5072143;28;20460;-79